Princeville, Hawaii
Current Conditions -  °F | °C
As of 7:53 AM on Saturday 25 Oct 2014 (Local Time) from PHLI Reporting Station
Broken Clouds Broken Clouds  
Wind Chill: 80°   Ceiling: 3400
Heat Index: 83°   Visibility: 10mi
Dew Point: 70°   Wind: 9mph
Humidity: 71%   Direction: 90°E
Pressure: 30.05"   Gusts: NA
Location:  22.22°N, 159.48°W
Report Text: PHLI 251753Z 09008KT 10SM SCT022 BKN034 27/21 A3005 RMK AO2 SLP173 T02670211 10267 20256 53014
Loading
Personal Weather Stations






























Interactive Weather Map
Tropical Storm Tracking
New forecast layout! Learn more

10-Day Weather Forecast

Advertisements
Track Severe Weather on mobile